sensor_id;sensor_type;location;lat;lon;timestamp;P1;durP1;ratioP1;P2;durP2;ratioP2
57323;SDS011;43160;51.008;18.248;2023-02-22T00:05:43;35.10;;;8.50;;
57323;SDS011;43160;51.008;18.248;2023-02-22T00:15:30;39.80;;;12.50;;
57323;SDS011;43160;51.008;18.248;2023-02-22T00:25:20;22.80;;;5.40;;
57323;SDS011;43160;51.008;18.248;2023-02-22T00:35:19;16.60;;;6.40;;
57323;SDS011;43160;51.008;18.248;2023-02-22T00:45:10;24.70;;;4.20;;
57323;SDS011;43160;51.008;18.248;2023-02-22T00:54:55;16.70;;;4.70;;
57323;SDS011;43160;51.008;18.248;2023-02-22T01:04:39;33.70;;;7.90;;
57323;SDS011;43160;51.008;18.248;2023-02-22T01:14:23;35.20;;;7.50;;
57323;SDS011;43160;51.008;18.248;2023-02-22T01:24:11;21.80;;;7.50;;
57323;SDS011;43160;51.008;18.248;2023-02-22T01:41:17;18.80;;;6.00;;
57323;SDS011;43160;51.008;18.248;2023-02-22T01:51:23;23.70;;;4.10;;
57323;SDS011;43160;51.008;18.248;2023-02-22T02:01:16;19.80;;;7.00;;
57323;SDS011;43160;51.008;18.248;2023-02-22T02:11:07;27.00;;;6.40;;
57323;SDS011;43160;51.008;18.248;2023-02-22T02:21:06;14.00;;;4.40;;
57323;SDS011;43160;51.008;18.248;2023-02-22T02:53:10;19.50;;;7.00;;
57323;SDS011;43160;51.008;18.248;2023-02-22T03:34:14;16.10;;;5.90;;
57323;SDS011;43160;51.008;18.248;2023-02-22T03:44:10;16.00;;;5.80;;
57323;SDS011;43160;51.008;18.248;2023-02-22T03:54:07;22.50;;;6.60;;
57323;SDS011;43160;51.008;18.248;2023-02-22T04:04:26;21.20;;;6.20;;
57323;SDS011;43160;51.008;18.248;2023-02-22T04:14:11;19.30;;;5.40;;
57323;SDS011;43160;51.008;18.248;2023-02-22T04:23:56;25.00;;;5.80;;
57323;SDS011;43160;51.008;18.248;2023-02-22T04:33:40;13.90;;;4.60;;
57323;SDS011;43160;51.008;18.248;2023-02-22T04:43:23;18.90;;;4.80;;
57323;SDS011;43160;51.008;18.248;2023-02-22T04:53:06;28.60;;;5.90;;
57323;SDS011;43160;51.008;18.248;2023-02-22T05:02:50;14.90;;;4.40;;
57323;SDS011;43160;51.008;18.248;2023-02-22T05:12:34;13.70;;;3.80;;
57323;SDS011;43160;51.008;18.248;2023-02-22T05:22:18;12.40;;;4.30;;
57323;SDS011;43160;51.008;18.248;2023-02-22T05:32:03;21.40;;;6.60;;
57323;SDS011;43160;51.008;18.248;2023-02-22T05:41:48;14.90;;;4.70;;
57323;SDS011;43160;51.008;18.248;2023-02-22T05:51:31;14.90;;;4.40;;
57323;SDS011;43160;51.008;18.248;2023-02-22T06:01:15;26.10;;;6.10;;
57323;SDS011;43160;51.008;18.248;2023-02-22T06:11:00;26.20;;;8.60;;
57323;SDS011;43160;51.008;18.248;2023-02-22T06:20:43;23.30;;;7.00;;
57323;SDS011;43160;51.008;18.248;2023-02-22T06:30:27;25.50;;;8.00;;
57323;SDS011;43160;51.008;18.248;2023-02-22T06:40:11;28.20;;;8.70;;
57323;SDS011;43160;51.008;18.248;2023-02-22T06:49:56;41.60;;;10.80;;
57323;SDS011;43160;51.008;18.248;2023-02-22T06:59:40;58.30;;;19.80;;
57323;SDS011;43160;51.008;18.248;2023-02-22T07:09:24;30.50;;;10.00;;
57323;SDS011;43160;51.008;18.248;2023-02-22T07:19:07;31.70;;;13.40;;
57323;SDS011;43160;51.008;18.248;2023-02-22T07:28:51;31.60;;;11.90;;
57323;SDS011;43160;51.008;18.248;2023-02-22T07:38:38;19.00;;;7.80;;
57323;SDS011;43160;51.008;18.248;2023-02-22T07:48:25;36.80;;;11.00;;
57323;SDS011;43160;51.008;18.248;2023-02-22T07:58:19;37.70;;;9.90;;
57323;SDS011;43160;51.008;18.248;2023-02-22T08:08:09;18.70;;;6.90;;
57323;SDS011;43160;51.008;18.248;2023-02-22T08:17:59;22.60;;;8.20;;
57323;SDS011;43160;51.008;18.248;2023-02-22T08:27:46;18.60;;;7.00;;
57323;SDS011;43160;51.008;18.248;2023-02-22T08:37:42;19.80;;;7.40;;
57323;SDS011;43160;51.008;18.248;2023-02-22T08:47:27;16.90;;;6.00;;
57323;SDS011;43160;51.008;18.248;2023-02-22T08:57:12;24.20;;;7.60;;
57323;SDS011;43160;51.008;18.248;2023-02-22T09:06:56;26.20;;;7.40;;
57323;SDS011;43160;51.008;18.248;2023-02-22T09:16:42;16.60;;;6.20;;
57323;SDS011;43160;51.008;18.248;2023-02-22T09:26:33;19.10;;;7.20;;
57323;SDS011;43160;51.008;18.248;2023-02-22T09:36:31;9.90;;;3.60;;
57323;SDS011;43160;51.008;18.248;2023-02-22T09:46:43;13.00;;;5.00;;
57323;SDS011;43160;51.008;18.248;2023-02-22T09:57:08;17.40;;;3.90;;
57323;SDS011;43160;51.008;18.248;2023-02-22T10:08:10;8.30;;;2.00;;
57323;SDS011;43160;51.008;18.248;2023-02-22T10:28:38;12.50;;;2.50;;
57323;SDS011;43160;51.008;18.248;2023-02-22T10:38:40;13.00;;;2.80;;
57323;SDS011;43160;51.008;18.248;2023-02-22T10:48:46;18.70;;;3.50;;
57323;SDS011;43160;51.008;18.248;2023-02-22T10:58:39;14.00;;;3.70;;
57323;SDS011;43160;51.008;18.248;2023-02-22T11:09:04;21.90;;;4.40;;
57323;SDS011;43160;51.008;18.248;2023-02-22T11:19:00;13.90;;;3.30;;
57323;SDS011;43160;51.008;18.248;2023-02-22T11:29:24;13.40;;;3.10;;
57323;SDS011;43160;51.008;18.248;2023-02-22T11:39:23;13.80;;;3.80;;
57323;SDS011;43160;51.008;18.248;2023-02-22T11:49:15;13.90;;;3.60;;
57323;SDS011;43160;51.008;18.248;2023-02-22T12:20:54;12.60;;;3.00;;
57323;SDS011;43160;51.008;18.248;2023-02-22T12:31:08;9.80;;;2.90;;
57323;SDS011;43160;51.008;18.248;2023-02-22T12:51:33;25.80;;;4.30;;
57323;SDS011;43160;51.008;18.248;2023-02-22T13:02:20;17.30;;;3.20;;
57323;SDS011;43160;51.008;18.248;2023-02-22T13:22:55;11.60;;;3.40;;
57323;SDS011;43160;51.008;18.248;2023-02-22T13:43:51;13.60;;;4.10;;
57323;SDS011;43160;51.008;18.248;2023-02-22T13:54:37;20.30;;;4.20;;
57323;SDS011;43160;51.008;18.248;2023-02-22T14:04:57;10.10;;;3.10;;
57323;SDS011;43160;51.008;18.248;2023-02-22T14:22:54;21.90;;;3.50;;
57323;SDS011;43160;51.008;18.248;2023-02-22T14:32:56;11.00;;;5.00;;
57323;SDS011;43160;51.008;18.248;2023-02-22T14:53:42;12.50;;;3.70;;
57323;SDS011;43160;51.008;18.248;2023-02-22T15:03:50;16.20;;;3.50;;
57323;SDS011;43160;51.008;18.248;2023-02-22T15:14:20;17.60;;;4.40;;
57323;SDS011;43160;51.008;18.248;2023-02-22T15:24:17;11.20;;;3.60;;
57323;SDS011;43160;51.008;18.248;2023-02-22T15:34:42;9.90;;;3.30;;
57323;SDS011;43160;51.008;18.248;2023-02-22T15:44:44;12.70;;;4.60;;
57323;SDS011;43160;51.008;18.248;2023-02-22T15:54:45;16.70;;;4.10;;
57323;SDS011;43160;51.008;18.248;2023-02-22T16:04:39;14.50;;;4.30;;
57323;SDS011;43160;51.008;18.248;2023-02-22T16:24:38;13.80;;;5.40;;
57323;SDS011;43160;51.008;18.248;2023-02-22T16:34:23;19.40;;;5.10;;
57323;SDS011;43160;51.008;18.248;2023-02-22T16:44:12;22.70;;;5.50;;
57323;SDS011;43160;51.008;18.248;2023-02-22T16:54:04;32.90;;;6.20;;
57323;SDS011;43160;51.008;18.248;2023-02-22T17:03:50;14.40;;;5.20;;
57323;SDS011;43160;51.008;18.248;2023-02-22T17:13:36;19.40;;;7.20;;
57323;SDS011;43160;51.008;18.248;2023-02-22T17:23:24;21.00;;;8.40;;
57323;SDS011;43160;51.008;18.248;2023-02-22T17:33:24;13.20;;;6.20;;
57323;SDS011;43160;51.008;18.248;2023-02-22T17:43:13;28.70;;;10.40;;
57323;SDS011;43160;51.008;18.248;2023-02-22T17:52:57;25.70;;;7.80;;
57323;SDS011;43160;51.008;18.248;2023-02-22T18:03:05;24.00;;;7.20;;
57323;SDS011;43160;51.008;18.248;2023-02-22T18:12:50;25.10;;;6.90;;
57323;SDS011;43160;51.008;18.248;2023-02-22T18:22:37;25.50;;;7.60;;
57323;SDS011;43160;51.008;18.248;2023-02-22T18:32:23;36.10;;;10.20;;
57323;SDS011;43160;51.008;18.248;2023-02-22T18:42:23;27.70;;;7.80;;
57323;SDS011;43160;51.008;18.248;2023-02-22T18:52:08;18.40;;;6.80;;
57323;SDS011;43160;51.008;18.248;2023-02-22T19:02:02;43.30;;;8.90;;
57323;SDS011;43160;51.008;18.248;2023-02-22T19:11:48;18.70;;;8.30;;
57323;SDS011;43160;51.008;18.248;2023-02-22T19:21:37;24.80;;;7.80;;
57323;SDS011;43160;51.008;18.248;2023-02-22T19:31:24;21.40;;;7.80;;
57323;SDS011;43160;51.008;18.248;2023-02-22T19:41:14;17.30;;;5.60;;
57323;SDS011;43160;51.008;18.248;2023-02-22T19:51:07;34.70;;;9.80;;
57323;SDS011;43160;51.008;18.248;2023-02-22T20:00:56;34.20;;;9.80;;
57323;SDS011;43160;51.008;18.248;2023-02-22T20:10:41;35.20;;;11.70;;
57323;SDS011;43160;51.008;18.248;2023-02-22T20:20:27;46.40;;;12.60;;
57323;SDS011;43160;51.008;18.248;2023-02-22T20:30:11;32.70;;;12.40;;
57323;SDS011;43160;51.008;18.248;2023-02-22T20:39:57;42.70;;;15.90;;
57323;SDS011;43160;51.008;18.248;2023-02-22T20:49:42;48.20;;;12.50;;
57323;SDS011;43160;51.008;18.248;2023-02-22T20:59:26;31.20;;;12.40;;
57323;SDS011;43160;51.008;18.248;2023-02-22T21:09:13;42.30;;;13.30;;
57323;SDS011;43160;51.008;18.248;2023-02-22T21:19:01;26.60;;;11.70;;
57323;SDS011;43160;51.008;18.248;2023-02-22T21:28:54;38.80;;;14.50;;
57323;SDS011;43160;51.008;18.248;2023-02-22T21:38:41;45.70;;;15.00;;
57323;SDS011;43160;51.008;18.248;2023-02-22T21:48:28;50.80;;;14.80;;
57323;SDS011;43160;51.008;18.248;2023-02-22T21:58:13;39.80;;;14.00;;
57323;SDS011;43160;51.008;18.248;2023-02-22T22:08:04;64.60;;;19.80;;
57323;SDS011;43160;51.008;18.248;2023-02-22T22:17:50;39.50;;;15.70;;
57323;SDS011;43160;51.008;18.248;2023-02-22T22:27:41;44.60;;;11.70;;
57323;SDS011;43160;51.008;18.248;2023-02-22T22:37:29;41.20;;;14.20;;
57323;SDS011;43160;51.008;18.248;2023-02-22T22:47:17;36.70;;;16.10;;
57323;SDS011;43160;51.008;18.248;2023-02-22T22:57:04;36.20;;;13.40;;
57323;SDS011;43160;51.008;18.248;2023-02-22T23:06:51;40.60;;;12.70;;
57323;SDS011;43160;51.008;18.248;2023-02-22T23:16:44;37.20;;;12.90;;
57323;SDS011;43160;51.008;18.248;2023-02-22T23:26:33;39.10;;;13.20;;
57323;SDS011;43160;51.008;18.248;2023-02-22T23:36:20;51.10;;;22.10;;
57323;SDS011;43160;51.008;18.248;2023-02-22T23:46:08;58.20;;;17.80;;
57323;SDS011;43160;51.008;18.248;2023-02-22T23:56:03;130.90;;;34.10;;
